Pierre, SD

7:43 AM MDT on July 24, 2016 (GMT -0600)
Pierre Regional | | Change Station

Elev 1742 ft 44.38 °N, 100.29 °W | Updated 50 minutes ago

Light Rain
Light Rain
65 °F
Feels Like 65 °F
N
9
Wind Variable Wind from NW

Today
High -- | Low -- °F
--% Chance of Precip.
Yesterday
High -- | Low -- °F
Precip. -- in
Pressure 30.00 in
Visibility 10.0 miles
Clouds Overcast 11000 ft
Dew Point 60 °F
Humidity 84%
Rainfall 0.01 in
Snow Depth Not available.
5:20 AM 8:14 PM
Waning Gibbous, 76% visible
METAR KPIR 241253Z AUTO 32008KT 10SM -RA OVC110 18/16 A3004 RMK AO2 RAB03 SLP159 P0001 T01830156
Pressure 30.00 in
Visibility 10.0 miles
Clouds Overcast 11000 ft
Dew Point 60 °F
Humidity 84%
Rainfall 0.01 in
Snow Depth Not available.
5:20 AM 8:14 PM
Waning Gibbous, 76% visible
METAR KPIR 241253Z AUTO 32008KT 10SM -RA OVC110 18/16 A3004 RMK AO2 RAB03 SLP159 P0001 T01830156

10-Day Weather Forecast

Almanac

Astronomy

Jul. 24, 2016 Rise Set
Actual Time
Civil Twilight
Nautical Twilight
Astronomical Twilight
Moon
Length of Visible Light
Length of Day
Tomorrow will be .
, % of the Moon is Illuminated

Today's Extremes

State Highs State Lows

Community

WunderPhotos

Upload Photos

1,927,057 photos uploaded!

WunderBlog® & News

Nearby

Air Quality

  Air Quality AQ Index Pollutant
Not available.

Snow Depth

Station Depth Elevation

Earthquake Activity

City Distance Mag. Time & Date
Minimum magnitude displayed is 2.5.

Coastal Water Temperatures

Place Temperature

Stations

Nearby Weather Stations

Station Location Temp. Windchill Dew Point Humidity Wind Precip. Elev Updated Type
                   

Watches & Warnings

There are currently no watches in effect.